Time;durP1;ratioP1;P1;durP2;ratioP2;P2;SDS_P1;SDS_P2;PMS_P1;PMS_P2;Temp;Humidity;BMP_temperature;BMP_pressure;BME280_temperature;BME280_humidity;BME280_pressure;Samples;Min_cycle;Max_cycle;Signal;HPM_P1;HPM_P2
2021/10/30 00:02:06;;;;;;;0.20;0.20;;;;;;;6.99;100.00;100276.72;5061497;28;20051;-86
2021/10/30 00:04:39;;;;;;;0.30;0.30;;;;;;;6.90;100.00;100267.47;5084409;28;20068;-84
2021/10/30 00:07:14;;;;;;;0.20;0.20;;;;;;;6.94;100.00;100277.50;5081563;28;20382;-86
2021/10/30 00:09:48;;;;;;;0.30;0.30;;;;;;;6.88;100.00;100283.97;5066466;28;20048;-86
2021/10/30 00:12:21;;;;;;;0.20;0.20;;;;;;;6.88;100.00;100288.59;5068776;28;20060;-86
2021/10/30 00:14:53;;;;;;;0.20;0.20;;;;;;;6.83;100.00;100277.72;5069504;28;20059;-86
2021/10/30 00:17:26;;;;;;;0.30;0.30;;;;;;;6.75;100.00;100270.94;5070085;28;20373;-87
2021/10/30 00:19:59;;;;;;;0.20;0.20;;;;;;;6.81;100.00;100283.41;5072061;28;20049;-86
2021/10/30 00:22:33;;;;;;;0.30;0.30;;;;;;;6.84;100.00;100293.69;5070188;28;20063;-85
2021/10/30 00:25:07;;;;;;;0.20;0.20;;;;;;;6.81;100.00;100291.53;5071041;28;20055;-86
2021/10/30 00:27:41;;;;;;;0.20;0.20;;;;;;;6.79;100.00;100294.50;5068061;28;20045;-86
2021/10/30 00:30:11;;;;;;;0.20;0.20;;;;;;;6.79;100.00;100289.09;5068141;28;20519;-88
2021/10/30 00:32:45;;;;;;;0.20;0.20;;;;;;;6.79;100.00;100294.50;5069025;28;20052;-86
2021/10/30 00:35:19;;;;;;;0.30;0.30;;;;;;;6.85;100.00;100289.09;5069059;28;20048;-87
2021/10/30 00:37:47;;;;;;;0.40;0.20;;;;;;;6.57;100.00;100243.28;5061498;28;20059;-86
2021/10/30 00:40:20;;;;;;;0.30;0.30;;;;;;;6.90;100.00;100286.41;5068958;28;20503;-86
2021/10/30 00:42:53;;;;;;;0.20;0.20;;;;;;;6.97;100.00;100286.97;5068680;28;20052;-86
2021/10/30 00:45:29;;;;;;;0.25;0.25;;;;;;;6.95;100.00;100291.84;5067872;28;20492;-86
2021/10/30 00:48:02;;;;;;;0.20;0.20;;;;;;;6.96;100.00;100288.03;5065295;28;20052;-87
2021/10/30 00:50:30;;;;;;;0.20;0.20;;;;;;;6.95;100.00;100291.84;5061723;28;20059;-85
2021/10/30 00:53:04;;;;;;;0.20;0.20;;;;;;;6.98;100.00;100292.09;5059532;28;20536;-86
2021/10/30 00:55:38;;;;;;;0.25;0.25;;;;;;;6.90;100.00;100289.13;5062559;28;20531;-87
2021/10/30 00:58:15;;;;;;;0.20;0.20;;;;;;;6.90;100.00;100287.22;5064061;28;20041;-87
2021/10/30 01:00:53;;;;;;;0.20;0.20;;;;;;;6.95;100.00;100295.34;5061876;28;20481;-87
2021/10/30 01:03:22;;;;;;;0.30;0.30;;;;;;;7.00;100.00;100291.84;5062418;28;20052;-85
2021/10/30 01:05:50;;;;;;;0.20;0.20;;;;;;;6.97;100.00;100279.69;5068270;28;20036;-86
2021/10/30 01:08:23;;;;;;;0.20;0.20;;;;;;;6.98;100.00;100275.88;5070398;28;20072;-87
2021/10/30 01:10:52;;;;;;;0.20;0.20;;;;;;;7.01;100.00;100279.94;5080329;28;20060;-85
2021/10/30 01:13:25;;;;;;;0.20;0.20;;;;;;;6.94;100.00;100277.50;5066808;28;20669;-85
2021/10/30 01:15:55;;;;;;;0.20;0.20;;;;;;;7.04;100.00;100290.22;5068731;28;20051;-85
2021/10/30 01:18:28;;;;;;;0.20;0.20;;;;;;;7.08;100.00;100282.41;5082558;28;20040;-86
2021/10/30 01:20:59;;;;;;;0.20;0.20;;;;;;;7.06;100.00;100279.16;5067430;28;20048;-87
2021/10/30 01:23:32;;;;;;;0.20;0.20;;;;;;;7.08;100.00;100282.41;5079882;28;20056;-86
2021/10/30 01:26:03;;;;;;;0.20;0.20;;;;;;;7.05;100.00;100281.03;5067704;28;20452;-85
2021/10/30 01:28:35;;;;;;;0.30;0.30;;;;;;;7.05;100.00;100294.56;5066557;28;20048;-86
2021/10/30 01:31:03;;;;;;;0.20;0.20;;;;;;;7.03;100.00;100291.34;5062609;28;20067;-86
2021/10/30 01:33:36;;;;;;;0.20;0.20;;;;;;;6.97;100.00;100289.69;5067312;28;20691;-85
2021/10/30 01:36:11;;;;;;;0.20;0.20;;;;;;;6.94;100.00;100295.63;5067646;28;20060;-85
2021/10/30 01:38:40;;;;;;;0.20;0.20;;;;;;;6.90;100.00;100286.41;5062395;28;20053;-87
2021/10/30 01:41:08;;;;;;;0.30;0.30;;;;;;;6.93;100.00;100296.69;5065452;28;20048;-87
2021/10/30 01:43:38;;;;;;;0.30;0.30;;;;;;;7.01;100.00;100306.19;5066034;28;20680;-86
2021/10/30 01:46:13;;;;;;;0.28;0.28;;;;;;;6.97;100.00;100305.91;5084919;28;20055;-86
2021/10/30 01:48:41;;;;;;;0.30;0.30;;;;;;;6.96;100.00;100310.50;5073019;28;20041;-85
2021/10/30 01:51:17;;;;;;;0.20;0.20;;;;;;;6.95;100.00;100310.78;5069373;28;20044;-84
2021/10/30 01:53:51;;;;;;;0.20;0.20;;;;;;;6.86;100.00;100307.75;5070490;28;20487;-86
2021/10/30 01:56:24;;;;;;;0.20;0.20;;;;;;;6.85;100.00;100305.31;5070407;28;20056;-84
2021/10/30 01:58:57;;;;;;;0.22;0.22;;;;;;;6.80;100.00;100298.00;5071838;28;20049;-86
2021/10/30 02:01:32;;;;;;;0.20;0.20;;;;;;;6.72;100.00;100295.81;5070785;28;20051;-87
2021/10/30 02:04:05;;;;;;;0.30;0.30;;;;;;;6.81;100.00;100302.34;5070090;28;20048;-85
2021/10/30 02:06:39;;;;;;;0.20;0.20;;;;;;;6.77;100.00;100299.34;5069463;28;20489;-87
2021/10/30 02:09:13;;;;;;;0.20;0.20;;;;;;;6.67;100.00;100285.78;5084690;28;20082;-84
2021/10/30 02:11:46;;;;;;;0.20;0.20;;;;;;;6.68;100.00;100298.22;5081729;28;20055;-85
2021/10/30 02:14:19;;;;;;;0.20;0.20;;;;;;;6.61;100.00;100294.94;5070350;28;20060;-85
2021/10/30 02:16:47;;;;;;;0.20;0.20;;;;;;;6.61;100.00;100297.63;5069865;28;20040;-87
2021/10/30 02:19:21;;;;;;;0.10;0.10;;;;;;;6.63;100.00;100290.09;5069355;28;20052;-86
2021/10/30 02:21:55;;;;;;;0.20;0.20;;;;;;;6.66;100.00;100296.84;5067796;28;20052;-85
2021/10/30 02:24:28;;;;;;;0.25;0.25;;;;;;;6.61;100.00;100292.22;5067340;28;20051;-86
2021/10/30 02:27:01;;;;;;;0.30;0.30;;;;;;;6.66;100.00;100291.44;5071405;28;20500;-85
2021/10/30 02:29:35;;;;;;;0.28;0.28;;;;;;;6.68;100.00;100295.50;5072959;28;20044;-87
2021/10/30 02:32:09;;;;;;;0.28;0.28;;;;;;;6.69;100.00;100291.72;5067136;28;20040;-86
2021/10/30 02:34:42;;;;;;;0.22;0.22;;;;;;;6.68;100.00;100294.69;5073471;28;20492;-85
2021/10/30 02:37:17;;;;;;;0.30;0.30;;;;;;;6.65;100.00;100282.50;5064930;28;20476;-85
2021/10/30 02:39:50;;;;;;;0.30;0.30;;;;;;;6.63;100.00;100280.06;5087614;28;20511;-86
2021/10/30 02:42:23;;;;;;;0.20;0.20;;;;;;;6.62;100.00;100283.06;5073201;28;20044;-86
2021/10/30 02:44:56;;;;;;;0.30;0.30;;;;;;;6.58;100.00;100277.34;5079694;28;20056;-87
2021/10/30 02:47:30;;;;;;;0.20;0.20;;;;;;;6.61;100.00;100276.81;5068573;28;20060;-84
2021/10/30 02:50:03;;;;;;;0.20;0.20;;;;;;;6.62;100.00;100277.63;5070796;28;20649;-85
2021/10/30 02:52:41;;;;;;;0.20;0.20;;;;;;;6.69;100.00;100275.50;5069038;28;20055;-87
2021/10/30 02:55:14;;;;;;;0.20;0.20;;;;;;;6.71;100.00;100288.75;5071098;28;20041;-86
2021/10/30 02:57:48;;;;;;;0.10;0.10;;;;;;;6.67;100.00;100282.25;5069648;28;20052;-87
2021/10/30 03:00:25;;;;;;;0.20;0.20;;;;;;;6.70;100.00;100289.81;5065688;28;20052;-87
2021/10/30 03:02:58;;;;;;;0.28;0.28;;;;;;;6.64;100.00;100280.88;5082441;28;20509;-86
2021/10/30 03:05:31;;;;;;;0.22;0.22;;;;;;;6.75;100.00;100287.16;5086238;28;20060;-88
2021/10/30 03:08:06;;;;;;;0.20;0.20;;;;;;;6.70;100.00;100284.41;5069376;28;20037;-86
2021/10/30 03:10:39;;;;;;;0.30;0.30;;;;;;;6.64;100.00;100284.41;5066208;28;20056;-87
2021/10/30 03:13:07;;;;;;;0.20;0.20;;;;;;;6.67;100.00;100280.38;5087266;28;20060;-86
2021/10/30 03:15:42;;;;;;;0.20;0.20;;;;;;;6.63;100.00;100276.56;5065587;28;20052;-85
2021/10/30 03:18:15;;;;;;;0.20;0.20;;;;;;;6.58;100.00;100271.94;5065790;28;20040;-86
2021/10/30 03:20:48;;;;;;;0.20;0.20;;;;;;;6.57;100.00;100273.03;5082330;28;20040;-85
2021/10/30 03:23:18;;;;;;;0.20;0.20;;;;;;;6.56;100.00;100278.69;5069471;28;20071;-87
2021/10/30 03:25:51;;;;;;;0.20;0.20;;;;;;;6.57;100.00;100280.31;5069466;28;20048;-85
2021/10/30 03:28:27;;;;;;;0.40;0.20;;;;;;;6.57;100.00;100272.19;5068083;28;20362;-86
2021/10/30 03:31:01;;;;;;;0.20;0.20;;;;;;;6.58;100.00;100280.03;5064661;28;20048;-85
2021/10/30 03:33:34;;;;;;;0.20;0.20;;;;;;;6.59;100.00;100272.75;5070294;28;20055;-87
2021/10/30 03:36:07;;;;;;;0.20;0.20;;;;;;;6.55;100.00;100269.75;5065774;28;20358;-86
2021/10/30 03:38:42;;;;;;;0.30;0.30;;;;;;;6.57;100.00;100264.94;5071845;28;20051;-85
2021/10/30 03:41:15;;;;;;;0.20;0.20;;;;;;;6.53;100.00;100274.63;5068599;28;20040;-86
2021/10/30 03:43:48;;;;;;;0.30;0.30;;;;;;;6.47;100.00;100265.66;5064138;28;20061;-85
2021/10/30 03:46:23;;;;;;;0.20;0.20;;;;;;;6.48;100.00;100271.91;5066067;28;20428;-86
2021/10/30 03:48:56;;;;;;;0.20;0.20;;;;;;;6.45;100.00;100267.03;5064891;28;20044;-85
2021/10/30 03:51:26;;;;;;;0.20;0.20;;;;;;;6.47;100.00;100265.66;5069708;28;20033;-83
2021/10/30 03:54:01;;;;;;;0.20;0.20;;;;;;;6.58;100.00;100271.13;5061334;28;20056;-87
2021/10/30 03:56:34;;;;;;;0.20;0.20;;;;;;;6.56;100.00;100273.28;5067828;28;20053;-86
2021/10/30 03:59:07;;;;;;;0.20;0.20;;;;;;;6.51;100.00;100267.84;5066181;28;20055;-85
2021/10/30 04:01:40;;;;;;;0.20;0.20;;;;;;;6.47;100.00;100262.16;5079697;28;20048;-86
2021/10/30 04:04:13;;;;;;;0.25;0.25;;;;;;;6.44;100.00;100255.38;5064023;28;20047;-86
2021/10/30 04:06:42;;;;;;;0.20;0.20;;;;;;;6.39;100.00;100255.34;5064610;28;20044;-85
2021/10/30 04:09:18;;;;;;;0.20;0.20;;;;;;;6.42;100.00;100262.13;5064690;28;20061;-85
2021/10/30 04:11:52;;;;;;;0.20;0.20;;;;;;;6.42;100.00;100272.94;5063065;28;20412;-86
2021/10/30 04:14:25;;;;;;;0.20;0.20;;;;;;;6.37;100.00;100262.91;5070270;28;20045;-84
2021/10/30 04:16:58;;;;;;;0.20;0.20;;;;;;;6.33;100.00;100264.50;5066568;28;20040;-86
2021/10/30 04:19:32;;;;;;;0.20;0.20;;;;;;;6.42;100.00;100265.66;5067910;28;20043;-85
2021/10/30 04:22:00;;;;;;;0.20;0.20;;;;;;;6.38;100.00;100261.84;5063843;28;20041;-87
2021/10/30 04:24:35;;;;;;;0.20;0.20;;;;;;;6.33;100.00;100267.22;5061469;28;20501;-86
2021/10/30 04:27:08;;;;;;;0.20;0.20;;;;;;;6.33;100.00;100269.91;5062506;28;20060;-87
2021/10/30 04:29:36;;;;;;;0.20;0.20;;;;;;;6.31;100.00;100277.47;5060372;28;20504;-86
2021/10/30 04:32:11;;;;;;;0.20;0.20;;;;;;;6.28;100.00;100275.28;5066883;28;20045;-85
2021/10/30 04:34:44;;;;;;;0.20;0.20;;;;;;;6.34;100.00;100268.84;5068290;28;20428;-86
2021/10/30 04:37:16;;;;;;;0.20;0.20;;;;;;;6.31;100.00;100258.53;5067223;28;20401;-85
2021/10/30 04:39:53;;;;;;;0.15;0.15;;;;;;;6.35;100.00;100262.34;5065815;28;20056;-87
2021/10/30 04:42:26;;;;;;;0.30;0.30;;;;;;;6.35;100.00;100254.25;5066940;28;20063;-87
2021/10/30 04:44:59;;;;;;;0.20;0.20;;;;;;;6.32;100.00;100248.56;5061953;28;20060;-86
2021/10/30 04:47:32;;;;;;;0.20;0.20;;;;;;;6.28;100.00;100253.66;5066336;28;20051;-87
2021/10/30 04:50:06;;;;;;;0.20;0.20;;;;;;;6.29;100.00;100248.00;5068103;28;20032;-87
2021/10/30 04:52:40;;;;;;;0.30;0.30;;;;;;;6.26;100.00;100248.53;5067412;28;20049;-86
2021/10/30 04:55:14;;;;;;;0.20;0.20;;;;;;;6.27;100.00;100252.03;5064736;28;20048;-86
2021/10/30 04:57:42;;;;;;;0.20;0.20;;;;;;;6.23;100.00;100242.84;5067513;28;20052;-86
2021/10/30 05:00:16;;;;;;;0.25;0.25;;;;;;;6.28;100.00;100249.09;5067797;28;20036;-86
2021/10/30 05:02:49;;;;;;;0.20;0.20;;;;;;;6.21;100.00;100240.38;5066040;28;20475;-86
2021/10/30 05:05:23;;;;;;;0.20;0.20;;;;;;;6.27;100.00;100252.88;5068436;28;20052;-86
2021/10/30 05:07:51;;;;;;;0.20;0.20;;;;;;;6.20;100.00;100240.66;5068388;28;20044;-86
2021/10/30 05:10:26;;;;;;;0.25;0.25;;;;;;;6.22;100.00;100247.41;5060329;28;20049;-86
2021/10/30 05:12:59;;;;;;;0.20;0.20;;;;;;;6.20;100.00;100236.06;5069615;28;20048;-88
2021/10/30 05:15:32;;;;;;;0.20;0.20;;;;;;;6.19;100.00;100256.06;5065834;28;20045;-86
2021/10/30 05:18:01;;;;;;;0.20;0.20;;;;;;;6.20;100.00;100257.69;5066893;28;20044;-86
2021/10/30 05:20:34;;;;;;;0.20;0.20;;;;;;;6.21;100.00;100258.50;5084002;28;20041;-86
2021/10/30 05:23:02;;;;;;;0.20;0.20;;;;;;;6.21;100.00;100262.00;5067129;28;20036;-87
2021/10/30 05:25:36;;;;;;;0.20;0.20;;;;;;;6.29;100.00;100268.81;5061130;28;20060;-85
2021/10/30 05:28:20;;;;;;;0.30;0.30;;;;;;;6.25;100.00;100268.50;5063378;28;20040;-87
2021/10/30 05:30:53;;;;;;;0.20;0.20;;;;;;;6.23;100.00;100259.06;5067134;28;20044;-85
2021/10/30 05:33:27;;;;;;;0.20;0.20;;;;;;;6.24;100.00;100257.97;5082208;28;20041;-84
2021/10/30 05:36:05;;;;;;;0.20;0.20;;;;;;;6.18;100.00;100249.00;5068836;28;20417;-86
2021/10/30 05:38:58;;;;;;;0.20;0.20;;;;;;;6.19;100.00;100234.44;5063229;28;20067;-84
2021/10/30 05:41:33;;;;;;;0.20;0.20;;;;;;;6.23;100.00;100234.75;5066427;28;20044;-87
2021/10/30 05:44:07;;;;;;;0.20;0.20;;;;;;;6.23;100.00;100242.84;5058795;28;20479;-83
2021/10/30 05:46:41;;;;;;;0.30;0.30;;;;;;;6.18;100.00;100246.31;5067109;28;20048;-86
2021/10/30 05:49:15;;;;;;;0.20;0.20;;;;;;;6.21;100.00;100259.28;5063453;28;20040;-87
2021/10/30 05:51:48;;;;;;;0.20;0.20;;;;;;;6.31;100.00;100255.84;5078796;28;20040;-85
2021/10/30 05:54:21;;;;;;;0.20;0.20;;;;;;;6.22;100.00;100254.72;5061686;28;20416;-86
2021/10/30 05:56:59;;;;;;;0.20;0.20;;;;;;;6.28;100.00;100265.31;5064521;28;20045;-86
2021/10/30 05:59:32;;;;;;;;;;;;;;;6.32;100.00;100256.66;5066912;28;20052;-83
2021/10/30 06:02:06;;;;;;;0.20;0.20;;;;;;;6.25;100.00;100265.00;5064190;28;19920;-87
2021/10/30 06:04:39;;;;;;;0.22;0.22;;;;;;;6.19;100.00;100255.25;5059814;28;20041;-85
2021/10/30 06:07:13;;;;;;;0.20;0.20;;;;;;;6.22;100.00;100258.22;5066428;28;20051;-86
2021/10/30 06:09:46;;;;;;;0.20;0.20;;;;;;;6.24;100.00;100269.59;5067646;28;20056;-84
2021/10/30 06:12:20;;;;;;;0.20;0.20;;;;;;;6.20;100.00;100273.91;5063501;28;20044;-86
2021/10/30 06:14:53;;;;;;;0.20;0.20;;;;;;;6.18;100.00;100259.81;5064059;28;20045;-85
2021/10/30 06:17:22;;;;;;;0.20;0.20;;;;;;;6.22;100.00;100271.75;5062393;28;20424;-86
2021/10/30 06:19:55;;;;;;;0.30;0.30;;;;;;;6.23;100.00;100275.28;5065857;28;20052;-85
2021/10/30 06:22:28;;;;;;;0.30;0.30;;;;;;;6.19;100.00;100285.78;5067278;28;20048;-86
2021/10/30 06:25:01;;;;;;;0.20;0.20;;;;;;;6.20;100.00;100281.19;5064288;28;20048;-87
2021/10/30 06:27:36;;;;;;;0.20;0.20;;;;;;;6.18;100.00;100264.44;5062264;28;20036;-88
2021/10/30 06:30:11;;;;;;;0.20;0.20;;;;;;;6.20;100.00;100270.38;5067299;28;20043;-87
2021/10/30 06:32:44;;;;;;;0.25;0.25;;;;;;;6.21;100.00;100275.50;5068503;28;20055;-85
2021/10/30 06:35:18;;;;;;;0.20;0.20;;;;;;;6.21;100.00;100259.28;5066371;28;20048;-85
2021/10/30 06:37:51;;;;;;;0.20;0.20;;;;;;;6.19;100.00;100263.34;5067451;28;20496;-86
2021/10/30 06:40:25;;;;;;;0.25;0.25;;;;;;;6.15;100.00;100262.25;5070167;28;20041;-87
2021/10/30 06:42:59;;;;;;;0.20;0.20;;;;;;;6.20;100.00;100273.06;5070995;28;20040;-86
2021/10/30 06:45:33;;;;;;;0.30;0.30;;;;;;;6.21;100.00;100274.72;5068628;28;20461;-86
2021/10/30 06:48:06;;;;;;;0.20;0.20;;;;;;;6.20;100.00;100264.97;5084494;28;22035;-86
2021/10/30 06:50:39;;;;;;;0.30;0.30;;;;;;;6.16;100.00;100239.53;5061453;28;20048;-85
2021/10/30 06:53:12;;;;;;;0.20;0.20;;;;;;;6.19;100.00;100241.75;5072219;28;20051;-85
2021/10/30 06:55:47;;;;;;;0.22;0.22;;;;;;;6.26;100.00;100243.13;5069204;28;20048;-86
2021/10/30 06:58:22;;;;;;;0.30;0.30;;;;;;;6.26;100.00;100253.94;5066736;28;20064;-88
2021/10/30 07:00:57;;;;;;;0.20;0.20;;;;;;;6.29;100.00;100247.19;5068642;28;20044;-85
2021/10/30 07:03:30;;;;;;;0.20;0.20;;;;;;;6.30;100.00;100240.72;5067881;28;20033;-86
2021/10/30 07:06:06;;;;;;;0.25;0.25;;;;;;;6.42;100.00;100240.50;5067797;28;20041;-86
2021/10/30 07:08:39;;;;;;;0.20;0.20;;;;;;;6.44;100.00;100236.47;5083752;28;20056;-85
2021/10/30 07:11:13;;;;;;;0.20;0.20;;;;;;;6.47;100.00;100235.91;5068893;28;20040;-85
2021/10/30 07:13:47;;;;;;;0.20;0.20;;;;;;;6.61;100.00;100246.25;5069295;28;20481;-87
2021/10/30 07:16:20;;;;;;;0.20;0.20;;;;;;;6.64;100.00;100241.16;5068848;28;20048;-86
2021/10/30 07:18:53;;;;;;;0.20;0.20;;;;;;;6.70;100.00;100231.16;5070889;28;20481;-86
2021/10/30 07:21:27;;;;;;;0.20;0.20;;;;;;;6.73;100.00;100236.03;5068816;28;20400;-84
2021/10/30 07:24:01;;;;;;;0.20;0.20;;;;;;;6.83;100.00;100243.38;5073071;28;20503;-85
2021/10/30 07:26:43;;;;;;;0.22;0.22;;;;;;;6.83;100.00;100240.66;5064529;28;20621;-85
2021/10/30 07:29:17;;;;;;;0.55;0.30;;;;;;;6.86;100.00;100237.44;5085475;28;20504;-86
2021/10/30 07:31:45;;;;;;;0.20;0.20;;;;;;;6.85;100.00;100235.81;5064839;28;20056;-85
2021/10/30 07:34:18;;;;;;;0.20;0.20;;;;;;;6.88;100.00;100229.88;5069946;28;20060;-86
2021/10/30 07:36:53;;;;;;;0.20;0.20;;;;;;;6.87;100.00;100230.94;5066415;28;20098;-86
2021/10/30 07:39:21;;;;;;;0.10;0.10;;;;;;;6.90;100.00;100232.31;5081468;28;20048;-87
2021/10/30 07:41:54;;;;;;;0.30;0.30;;;;;;;6.90;100.00;100216.88;5064157;28;20048;-86
2021/10/30 07:44:28;;;;;;;0.20;0.20;;;;;;;6.93;100.00;100210.13;5069435;28;20044;-85
2021/10/30 07:47:02;;;;;;;0.25;0.20;;;;;;;6.95;100.00;100210.69;5066619;28;20045;-87
2021/10/30 07:49:36;;;;;;;0.20;0.20;;;;;;;6.97;100.00;100219.34;5085064;28;20416;-81
2021/10/30 07:52:06;;;;;;;0.30;0.30;;;;;;;6.99;100.00;100222.59;5065976;28;20064;-86
2021/10/30 07:54:40;;;;;;;0.20;0.20;;;;;;;6.94;100.00;100215.28;5066806;28;20424;-85
2021/10/30 07:57:13;;;;;;;0.20;0.20;;;;;;;6.96;100.00;100212.28;5067432;28;20052;-85
2021/10/30 07:59:50;;;;;;;0.20;0.20;;;;;;;6.92;100.00;100216.63;5068172;28;20036;-84
2021/10/30 08:02:23;;;;;;;;;;;;;;;6.93;100.00;100220.94;5066072;28;20045;-85
2021/10/30 08:04:57;;;;;;;0.30;0.30;;;;;;;6.86;100.00;100202.25;5054071;28;19929;-83
2021/10/30 08:07:33;;;;;;;0.20;0.20;;;;;;;6.96;100.00;100204.19;5057551;28;20413;-82
2021/10/30 08:10:08;;;;;;;0.20;0.20;;;;;;;7.07;100.00;100208.56;5054574;28;20067;-83
2021/10/30 08:12:44;;;;;;;0.28;0.28;;;;;;;7.14;100.00;100203.69;5043263;28;20048;-82
2021/10/30 08:15:19;;;;;;;0.20;0.20;;;;;;;7.20;100.00;100201.00;5042846;28;20057;-83
2021/10/30 08:17:52;;;;;;;0.20;0.20;;;;;;;7.22;100.00;100201.53;5044700;28;20052;-82
2021/10/30 08:20:25;;;;;;;0.20;0.20;;;;;;;7.23;100.00;100200.44;5043719;28;20056;-82
2021/10/30 08:23:00;;;;;;;0.25;0.25;;;;;;;7.21;100.00;100197.19;5063002;28;20055;-87
2021/10/30 08:25:34;;;;;;;0.20;0.20;;;;;;;7.30;100.00;100192.88;5045836;28;20050;-81
2021/10/30 08:28:07;;;;;;;0.20;0.20;;;;;;;7.29;100.00;100170.41;5043545;28;20055;-85
2021/10/30 08:30:46;;;;;;;0.22;0.22;;;;;;;7.37;100.00;100192.59;5052045;28;20052;-85
2021/10/30 08:33:20;;;;;;;0.30;0.30;;;;;;;7.45;100.00;100190.16;5044986;28;20563;-83
2021/10/30 08:35:53;;;;;;;0.22;0.22;;;;;;;7.51;100.00;100182.03;5047391;28;20041;-85
2021/10/30 08:38:27;;;;;;;0.20;0.20;;;;;;;7.62;100.00;100178.25;5044266;28;20060;-84
2021/10/30 08:41:01;;;;;;;0.30;0.30;;;;;;;7.58;100.00;100156.31;5043949;28;20048;-88
2021/10/30 08:43:35;;;;;;;0.20;0.20;;;;;;;7.78;100.00;100171.72;5067641;28;20067;-83
2021/10/30 08:46:10;;;;;;;1.20;0.30;;;;;;;7.90;100.00;100176.84;5044962;28;20678;-82
2021/10/30 08:48:45;;;;;;;0.20;0.20;;;;;;;8.01;100.00;100164.09;5061654;28;20063;-81
2021/10/30 08:51:18;;;;;;;0.20;0.20;;;;;;;8.18;100.00;100183.53;5064291;28;20056;-87
2021/10/30 08:53:51;;;;;;;0.20;0.20;;;;;;;8.26;100.00;100187.59;5064595;28;20051;-86
2021/10/30 08:56:19;;;;;;;0.30;0.30;;;;;;;8.38;100.00;100192.69;5079567;28;20044;-84
2021/10/30 08:58:52;;;;;;;0.20;0.20;;;;;;;8.45;100.00;100201.41;5064782;28;20053;-84
2021/10/30 09:01:27;;;;;;;0.30;0.30;;;;;;;8.47;100.00;100199.19;5070998;28;20048;-85
2021/10/30 09:04:01;;;;;;;0.20;0.20;;;;;;;8.55;100.00;100199.72;5086010;28;20052;-87
2021/10/30 09:06:37;;;;;;;0.20;0.20;;;;;;;8.62;100.00;100195.63;5067062;28;20040;-84
2021/10/30 09:09:14;;;;;;;0.20;0.20;;;;;;;8.68;100.00;100188.25;5081618;28;20049;-86
2021/10/30 09:11:43;;;;;;;0.20;0.20;;;;;;;8.79;100.00;100189.03;5066786;28;20055;-85
2021/10/30 09:14:21;;;;;;;0.20;0.20;;;;;;;8.82;100.00;100191.16;5063892;28;20040;-85
2021/10/30 09:17:16;;;;;;;0.20;0.20;;;;;;;8.85;100.00;100185.19;5084715;28;20044;-86
2021/10/30 09:19:51;;;;;;;0.30;0.30;;;;;;;8.97;100.00;100176.72;5064152;28;20401;-86
2021/10/30 09:22:27;;;;;;;0.30;0.30;;;;;;;9.12;100.00;100173.09;5064628;28;20056;-86
2021/10/30 09:25:02;;;;;;;0.30;0.30;;;;;;;9.26;100.00;100173.25;5080859;28;20066;-86
2021/10/30 09:27:49;;;;;;;0.20;0.20;;;;;;;9.28;100.00;100174.59;5069693;28;20049;-86
2021/10/30 09:30:19;;;;;;;0.20;0.20;;;;;;;9.24;100.00;100176.25;5081929;28;20461;-86
2021/10/30 09:32:56;;;;;;;0.20;0.20;;;;;;;9.30;100.00;100166.97;5061749;28;20048;-86
2021/10/30 09:35:32;;;;;;;0.30;0.30;;;;;;;9.33;100.00;100184.59;5066841;28;20068;-85
2021/10/30 09:38:06;;;;;;;0.20;0.20;;;;;;;9.34;100.00;100169.94;5082306;28;20524;-86
2021/10/30 09:40:34;;;;;;;0.20;0.20;;;;;;;9.50;100.00;100181.47;5064863;28;20049;-87
2021/10/30 09:43:12;;;;;;;0.20;0.20;;;;;;;9.58;100.00;100171.91;5069591;28;20032;-88
2021/10/30 09:45:48;;;;;;;0.20;0.20;;;;;;;9.68;100.00;100169.91;5068196;28;20048;-87
2021/10/30 09:48:26;;;;;;;0.30;0.30;;;;;;;9.68;100.00;100166.34;5065441;28;20358;-87
2021/10/30 09:50:58;;;;;;;0.20;0.20;;;;;;;9.71;100.00;100171.25;5082399;28;20056;-86
2021/10/30 09:53:33;;;;;;;0.20;0.20;;;;;;;9.72;100.00;100161.16;5064550;28;20052;-86
2021/10/30 09:56:09;;;;;;;0.30;0.30;;;;;;;9.62;100.00;100130.28;5068186;28;20052;-86
2021/10/30 09:58:44;;;;;;;0.28;0.28;;;;;;;9.88;100.00;100158.00;5066458;28;20056;-86
2021/10/30 10:01:19;;;;;;;0.20;0.20;;;;;;;9.92;100.00;100152.81;5063963;28;20503;-89
2021/10/30 10:03:55;;;;;;;0.20;0.20;;;;;;;9.98;100.00;100161.72;5067628;28;20075;-86
2021/10/30 10:06:33;;;;;;;0.57;0.30;;;;;;;9.99;100.00;100153.25;5068100;28;20057;-86
2021/10/30 10:09:06;;;;;;;0.10;0.10;;;;;;;10.03;100.00;100148.88;5070465;28;20048;-86
2021/10/30 10:11:41;;;;;;;0.20;0.20;;;;;;;10.07;100.00;100142.84;5071699;28;20052;-86
2021/10/30 10:14:42;;;;;;;0.30;0.30;;;;;;;10.11;100.00;100142.00;5068618;28;20053;-86
2021/10/30 10:17:11;;;;;;;0.28;0.28;;;;;;;10.14;100.00;100130.53;5068320;28;20044;-86
2021/10/30 10:19:49;;;;;;;0.20;0.20;;;;;;;10.24;100.00;100134.25;5072595;28;20052;-85
2021/10/30 10:22:22;;;;;;;;;;;;;;;10.25;100.00;100123.06;5067835;28;20059;-87
2021/10/30 10:25:31;;;;;;;0.30;0.30;;;;;;;10.26;100.00;100124.69;5073529;28;19920;-87
2021/10/30 10:28:24;;;;;;;0.30;0.30;;;;;;;10.16;100.00;100127.53;5069946;28;20130;-85
2021/10/30 10:31:04;;;;;;;0.20;0.20;;;;;;;10.07;100.00;100111.06;5069756;28;20052;-87
2021/10/30 10:34:06;;;;;;;0.30;0.30;;;;;;;10.12;100.00;100118.31;5081317;28;20060;-86
2021/10/30 10:36:42;;;;;;;0.20;0.20;;;;;;;10.15;100.00;100109.59;5064985;28;20048;-88
2021/10/30 10:39:21;;;;;;;0.20;0.20;;;;;;;10.22;100.00;100110.06;5067369;28;20048;-87
2021/10/30 10:42:03;;;;;;;0.20;0.20;;;;;;;10.31;100.00;100104.78;5062591;28;20059;-87
2021/10/30 10:45:04;;;;;;;0.22;0.22;;;;;;;10.39;100.00;100096.00;5066807;28;20060;-86
2021/10/30 10:48:00;;;;;;;0.20;0.20;;;;;;;10.42;100.00;100089.97;5068182;28;20392;-86
2021/10/30 10:50:34;;;;;;;0.30;0.30;;;;;;;10.51;100.00;100093.66;5062933;28;20373;-87
2021/10/30 10:53:28;;;;;;;0.30;0.30;;;;;;;10.57;100.00;100079.97;5064996;28;20044;-85
2021/10/30 10:56:12;;;;;;;0.20;0.20;;;;;;;10.58;100.00;100071.53;5063288;28;20307;-87
2021/10/30 10:59:17;;;;;;;0.20;0.20;;;;;;;10.66;100.00;100067.31;5068851;28;20053;-89
2021/10/30 11:02:20;;;;;;;0.22;0.22;;;;;;;10.71;100.00;100057.16;5071475;28;20567;-84
2021/10/30 11:05:27;;;;;;;0.20;0.20;;;;;;;10.79;100.00;100050.25;5080442;28;20785;-87
2021/10/30 11:08:26;;;;;;;0.20;0.20;;;;;;;10.54;100.00;100043.28;5066773;28;20048;-86
2021/10/30 11:11:25;;;;;;;0.20;0.20;;;;;;;10.45;100.00;100050.47;5050487;28;20068;-86
2021/10/30 11:14:01;;;;;;;0.28;0.28;;;;;;;10.39;100.00;100033.44;5047423;28;20428;-85
2021/10/30 11:16:40;;;;;;;0.20;0.20;;;;;;;10.46;100.00;100042.03;5057776;28;20053;-86
2021/10/30 11:19:22;;;;;;;0.20;0.20;;;;;;;10.62;100.00;100028.19;5067251;28;20059;-88
2021/10/30 11:22:10;;;;;;;0.20;0.20;;;;;;;10.81;100.00;100029.00;5061819;28;20405;-82
2021/10/30 11:24:53;;;;;;;0.30;0.30;;;;;;;10.75;100.00;100022.00;5058384;28;20045;-84
2021/10/30 11:27:21;;;;;;;0.30;0.30;;;;;;;10.72;100.00;100014.44;5042478;28;20065;-84
2021/10/30 11:29:51;;;;;;;0.20;0.20;;;;;;;10.86;100.00;100009.03;5044732;28;20060;-86
2021/10/30 11:32:24;;;;;;;0.20;0.20;;;;;;;10.77;100.00;100000.75;5067085;28;20052;-86
2021/10/30 11:34:54;;;;;;;0.20;0.20;;;;;;;10.75;100.00;99992.06;4997593;28;20052;-86
2021/10/30 11:37:27;;;;;;;0.20;0.20;;;;;;;10.81;100.00;99987.34;5055306;28;20064;-84
2021/10/30 11:39:57;;;;;;;0.25;0.25;;;;;;;10.82;100.00;99983.50;5039056;28;20877;-85
2021/10/30 11:42:30;;;;;;;0.20;0.20;;;;;;;10.80;100.00;99974.81;5047847;28;20045;-86
2021/10/30 11:44:59;;;;;;;0.20;0.20;;;;;;;10.84;100.00;99967.69;5046737;28;20576;-85
2021/10/30 11:47:32;;;;;;;0.20;0.20;;;;;;;10.85;100.00;99964.69;5044936;28;20049;-83
2021/10/30 11:50:10;;;;;;;0.20;0.20;;;;;;;11.01;100.00;99956.25;5045948;28;20602;-86
2021/10/30 11:52:49;;;;;;;0.30;0.30;;;;;;;10.97;100.00;99953.28;5057849;28;20706;-85
2021/10/30 11:55:26;;;;;;;0.30;0.30;;;;;;;10.85;100.00;99953.78;5044214;28;20068;-86
2021/10/30 11:57:59;;;;;;;0.20;0.20;;;;;;;10.81;100.00;99955.50;5045967;28;20048;-85
2021/10/30 12:00:32;;;;;;;0.30;0.30;;;;;;;10.79;100.00;99943.28;5042402;28;20049;-85